createdAt,value
2023-04-27T00:00:26.355Z,16
2023-04-27T00:01:33.349Z,14
2023-04-27T00:02:40.365Z,17
2023-04-27T00:03:47.135Z,16
2023-04-27T00:04:54.032Z,17
2023-04-27T00:06:00.781Z,17
2023-04-27T00:07:07.739Z,18
2023-04-27T00:08:14.520Z,20
2023-04-27T00:09:21.369Z,20
2023-04-27T00:10:28.971Z,19
2023-04-27T00:11:51.373Z,19
2023-04-27T00:12:58.199Z,21
2023-04-27T00:14:05.101Z,23
2023-04-27T00:15:11.947Z,21
2023-04-27T00:16:18.817Z,21
2023-04-27T00:17:26.450Z,23
2023-04-27T00:18:33.334Z,24
2023-04-27T00:19:40.228Z,22
2023-04-27T00:20:47.106Z,22
2023-04-27T00:21:53.906Z,23
2023-04-27T00:23:00.801Z,23
2023-04-27T00:24:07.620Z,22
2023-04-27T00:25:14.454Z,22
2023-04-27T00:26:21.347Z,22
2023-04-27T00:27:28.196Z,24
2023-04-27T00:28:35.039Z,24
2023-04-27T00:29:41.845Z,24
2023-04-27T00:30:48.674Z,25
2023-04-27T00:31:55.613Z,25
2023-04-27T00:33:02.593Z,26
2023-04-27T00:34:09.349Z,25
2023-04-27T00:35:16.251Z,24
2023-04-27T00:36:23.086Z,24
2023-04-27T00:37:29.930Z,25
2023-04-27T00:38:36.902Z,24
2023-04-27T00:39:43.662Z,24
2023-04-27T00:40:50.488Z,24
2023-04-27T00:42:07.679Z,25
2023-04-27T00:43:14.562Z,24
2023-04-27T00:44:21.365Z,24
2023-04-27T00:45:28.202Z,23
2023-04-27T00:46:35.043Z,25
2023-04-27T00:47:41.936Z,24
2023-04-27T00:48:48.880Z,24
2023-04-27T00:49:55.811Z,24
2023-04-27T00:51:02.580Z,24
2023-04-27T00:52:09.350Z,23
2023-04-27T00:53:16.137Z,22
2023-04-27T00:54:22.887Z,23
2023-04-27T00:55:29.832Z,24
2023-04-27T00:56:36.663Z,23
2023-04-27T00:57:43.506Z,25
2023-04-27T00:58:50.307Z,22
2023-04-27T00:59:57.141Z,23
2023-04-27T01:01:04.285Z,23
2023-04-27T01:02:11.128Z,23
2023-04-27T01:03:18.032Z,22
2023-04-27T01:04:24.899Z,25
2023-04-27T01:05:32.650Z,24
2023-04-27T01:06:38.388Z,24
2023-04-27T01:07:45.345Z,26
2023-04-27T01:08:52.208Z,25
2023-04-27T01:09:59.045Z,24
2023-04-27T01:11:05.872Z,26
2023-04-27T01:12:12.740Z,28
2023-04-27T01:13:19.627Z,27
2023-04-27T01:14:26.527Z,26
2023-04-27T01:15:33.346Z,28
2023-04-27T01:16:40.165Z,26
2023-04-27T01:17:47.020Z,27
2023-04-27T01:18:54.699Z,26
2023-04-27T01:20:01.474Z,25
2023-04-27T01:21:08.702Z,25
2023-04-27T01:22:15.516Z,23
2023-04-27T01:23:22.392Z,25
2023-04-27T01:24:29.162Z,24
2023-04-27T01:25:36.046Z,23
2023-04-27T01:26:42.834Z,23
2023-04-27T01:27:49.642Z,24
2023-04-27T01:28:56.511Z,22
2023-04-27T01:30:03.385Z,23
2023-04-27T01:31:10.492Z,23
2023-04-27T01:32:17.250Z,23
2023-04-27T01:33:24.066Z,24
2023-04-27T01:34:30.870Z,21
2023-04-27T01:35:37.614Z,21
2023-04-27T01:36:44.521Z,21
2023-04-27T01:37:52.199Z,21
2023-04-27T01:38:58.998Z,21
2023-04-27T01:40:05.823Z,21
2023-04-27T01:41:12.715Z,21
2023-04-27T01:42:19.684Z,20
2023-04-27T01:43:26.588Z,20
2023-04-27T01:44:33.481Z,20
2023-04-27T01:45:40.289Z,20
2023-04-27T01:46:47.208Z,19
2023-04-27T01:47:53.902Z,18
2023-04-27T01:49:00.775Z,18
2023-04-27T01:50:07.594Z,18
2023-04-27T01:51:14.394Z,16
2023-04-27T01:52:21.161Z,16
2023-04-27T01:53:27.999Z,17
2023-04-27T01:54:34.857Z,17
2023-04-27T01:55:41.875Z,16
2023-04-27T01:56:48.692Z,17
2023-04-27T01:57:55.463Z,19
2023-04-27T01:59:02.311Z,18
2023-04-27T02:00:09.086Z,17
2023-04-27T02:01:16.257Z,19
2023-04-27T02:02:23.273Z,19
2023-04-27T02:03:30.153Z,20
2023-04-27T02:04:37.192Z,20
2023-04-27T02:05:43.911Z,21
2023-04-27T02:06:50.788Z,20
2023-04-27T02:07:57.596Z,21
2023-04-27T02:09:04.374Z,20
2023-04-27T02:10:11.183Z,21
2023-04-27T02:11:18.017Z,20
2023-04-27T02:12:24.897Z,19
2023-04-27T02:13:31.822Z,21
2023-04-27T02:14:38.585Z,19
2023-04-27T02:15:45.398Z,19
2023-04-27T02:16:52.238Z,20
2023-04-27T02:17:59.052Z,19
2023-04-27T02:19:05.888Z,19
2023-04-27T02:20:12.708Z,19
2023-04-27T02:21:19.591Z,20
2023-04-27T02:22:26.362Z,19
2023-04-27T02:23:33.148Z,19
2023-04-27T02:24:39.956Z,18
2023-04-27T02:25:46.759Z,17
2023-04-27T02:26:53.478Z,16
2023-04-27T02:28:00.315Z,15
2023-04-27T02:29:07.202Z,16
2023-04-27T02:30:14.041Z,15
2023-04-27T02:31:20.908Z,16
2023-04-27T02:32:27.656Z,15
2023-04-27T02:33:34.423Z,15
2023-04-27T02:34:41.197Z,14
2023-04-27T02:35:48.147Z,14
2023-04-27T02:36:55.043Z,14
2023-04-27T02:38:01.840Z,14
2023-04-27T02:39:08.635Z,14
2023-04-27T02:40:15.460Z,14
2023-04-27T02:41:22.315Z,14
2023-04-27T02:42:29.085Z,15
2023-04-27T02:43:35.918Z,14
2023-04-27T02:44:42.693Z,14
2023-04-27T02:45:49.459Z,14
2023-04-27T02:46:56.268Z,15
2023-04-27T02:48:03.032Z,15
2023-04-27T02:49:09.823Z,14
2023-04-27T02:50:16.616Z,15
2023-04-27T02:51:23.366Z,14
2023-04-27T02:52:30.452Z,15
2023-04-27T02:53:37.337Z,15
2023-04-27T02:54:44.093Z,14
2023-04-27T02:55:50.881Z,15
2023-04-27T02:56:57.651Z,14
2023-04-27T02:58:04.459Z,15
2023-04-27T02:59:11.305Z,16
2023-04-27T03:00:18.939Z,14
2023-04-27T03:01:25.788Z,14
2023-04-27T03:02:32.641Z,14
2023-04-27T03:03:39.580Z,15
2023-04-27T03:04:49.096Z,15
2023-04-27T03:05:55.860Z,15
2023-04-27T03:07:02.618Z,14
2023-04-27T03:08:09.393Z,15
2023-04-27T03:09:16.624Z,15
2023-04-27T03:10:22.934Z,15
2023-04-27T03:11:29.845Z,15
2023-04-27T03:12:36.876Z,14
2023-04-27T03:13:43.643Z,15
2023-04-27T03:14:50.420Z,14
2023-04-27T03:15:57.285Z,15
2023-04-27T03:17:04.079Z,14
2023-04-27T03:18:10.870Z,17
2023-04-27T03:19:17.630Z,17
2023-04-27T03:20:24.484Z,21
2023-04-27T03:21:31.215Z,21
2023-04-27T03:22:38.015Z,23
2023-04-27T03:23:44.853Z,22
2023-04-27T03:24:51.607Z,22
2023-04-27T03:25:58.348Z,22
2023-04-27T03:27:10.282Z,22
2023-04-27T03:28:17.035Z,22
2023-04-27T03:29:23.844Z,23
2023-04-27T03:30:30.651Z,24
2023-04-27T03:31:37.531Z,24
2023-04-27T03:32:46.314Z,25
2023-04-27T03:33:51.022Z,25
2023-04-27T03:34:57.771Z,25
2023-04-27T03:36:04.617Z,26
2023-04-27T03:37:11.653Z,27
2023-04-27T03:38:18.457Z,27
2023-04-27T03:39:25.198Z,25
2023-04-27T03:40:31.937Z,25
2023-04-27T03:41:38.762Z,25
2023-04-27T03:42:45.777Z,26
2023-04-27T03:43:52.538Z,25
2023-04-27T03:44:59.325Z,25
2023-04-27T03:46:07.093Z,24
2023-04-27T03:47:13.775Z,24
2023-04-27T03:48:20.623Z,25
2023-04-27T03:49:27.434Z,24
2023-04-27T03:50:34.155Z,23
2023-04-27T03:51:40.925Z,22
2023-04-27T03:52:47.772Z,23
2023-04-27T03:53:54.534Z,23
2023-04-27T03:55:01.424Z,21
2023-04-27T03:56:08.461Z,20
2023-04-27T03:57:15.450Z,21
2023-04-27T03:58:22.237Z,21
2023-04-27T03:59:29.012Z,19
2023-04-27T04:00:36.053Z,21
2023-04-27T04:01:42.869Z,20
2023-04-27T04:02:49.839Z,21
2023-04-27T04:03:56.458Z,24
2023-04-27T04:05:03.166Z,21
2023-04-27T04:06:10.120Z,22
2023-04-27T04:07:16.932Z,22
2023-04-27T04:08:23.750Z,23
2023-04-27T04:09:30.570Z,20
2023-04-27T04:10:37.375Z,23
2023-04-27T04:11:44.468Z,25
2023-04-27T04:12:51.225Z,26
2023-04-27T04:13:58.076Z,30
2023-04-27T04:15:04.993Z,30
2023-04-27T04:16:11.947Z,28
2023-04-27T04:17:18.770Z,30
2023-04-27T04:18:25.535Z,27
2023-04-27T04:19:32.271Z,28
2023-04-27T04:20:39.079Z,28
2023-04-27T04:21:45.868Z,26
2023-04-27T04:22:52.702Z,26
2023-04-27T04:23:59.636Z,27
2023-04-27T04:25:06.635Z,27
2023-04-27T04:26:13.615Z,26
2023-04-27T04:27:20.381Z,26
2023-04-27T04:28:27.131Z,27
2023-04-27T04:29:33.972Z,27
2023-04-27T04:30:40.753Z,28
2023-04-27T04:31:47.593Z,27
2023-04-27T04:32:54.321Z,27
2023-04-27T04:34:01.128Z,26
2023-04-27T04:35:08.036Z,25
2023-04-27T04:36:14.883Z,26
2023-04-27T04:37:21.656Z,24
2023-04-27T04:38:28.458Z,24
2023-04-27T04:39:35.213Z,24
2023-04-27T04:40:43.814Z,26
2023-04-27T04:41:48.840Z,25
2023-04-27T04:42:55.568Z,24
2023-04-27T04:44:02.344Z,23
2023-04-27T04:45:09.110Z,22
2023-04-27T04:46:15.993Z,23
2023-04-27T04:47:22.800Z,22
2023-04-27T04:48:29.553Z,20
2023-04-27T04:49:36.440Z,21
2023-04-27T04:50:43.193Z,22
2023-04-27T04:51:49.987Z,22
2023-04-27T04:52:56.930Z,23
2023-04-27T04:54:03.742Z,22
2023-04-27T04:55:10.595Z,23
2023-04-27T04:56:17.349Z,24
2023-04-27T04:57:24.350Z,22
2023-04-27T04:58:31.167Z,23
2023-04-27T04:59:37.862Z,22
2023-04-27T05:00:44.624Z,24
2023-04-27T05:01:51.418Z,22
2023-04-27T05:02:58.261Z,21
2023-04-27T05:04:05.218Z,21
2023-04-27T05:05:11.818Z,22
2023-04-27T05:06:18.628Z,21
2023-04-27T05:07:25.429Z,22
2023-04-27T05:08:32.260Z,20
2023-04-27T05:09:39.130Z,19
2023-04-27T05:10:45.876Z,18
2023-04-27T05:11:55.738Z,18
2023-04-27T05:13:03.142Z,18
2023-04-27T05:14:09.442Z,18
2023-04-27T05:15:16.234Z,20
2023-04-27T05:16:23.055Z,21
2023-04-27T05:17:29.850Z,25
2023-04-27T05:18:36.637Z,40
2023-04-27T05:19:43.435Z,46
2023-04-27T05:20:50.218Z,60
2023-04-27T05:21:57.099Z,53
2023-04-27T05:23:03.914Z,57
2023-04-27T05:24:10.671Z,66
2023-04-27T05:25:17.489Z,61
2023-04-27T05:26:24.243Z,58
2023-04-27T05:27:31.025Z,45
2023-04-27T05:28:37.950Z,44
2023-04-27T05:29:44.574Z,40
2023-04-27T05:30:51.383Z,37
2023-04-27T05:31:58.165Z,36
2023-04-27T05:33:05.195Z,34
2023-04-27T05:34:11.898Z,30
2023-04-27T05:35:18.728Z,31
2023-04-27T05:36:25.487Z,28
2023-04-27T05:37:32.246Z,24
2023-04-27T05:38:39.090Z,24
2023-04-27T05:39:45.929Z,23
2023-04-27T05:40:53.920Z,25
2023-04-27T05:41:59.428Z,24
2023-04-27T05:43:06.274Z,24
2023-04-27T05:44:13.280Z,24
2023-04-27T05:45:19.946Z,23
2023-04-27T05:46:26.846Z,25
2023-04-27T05:47:33.622Z,23
2023-04-27T05:48:40.368Z,24
2023-04-27T05:49:47.296Z,23
2023-04-27T05:50:54.289Z,21
2023-04-27T05:52:04.812Z,21
2023-04-27T05:53:11.585Z,22
2023-04-27T05:54:18.348Z,20
2023-04-27T05:55:25.088Z,18
2023-04-27T05:56:33.068Z,18
2023-04-27T05:57:40.451Z,16
2023-04-27T05:58:46.965Z,16
2023-04-27T05:59:54.692Z,17
2023-04-27T06:01:01.433Z,17
2023-04-27T06:02:08.177Z,14
2023-04-27T06:03:15.223Z,15
2023-04-27T06:04:21.954Z,15
2023-04-27T06:05:28.720Z,13
2023-04-27T06:06:38.432Z,14
2023-04-27T06:07:46.223Z,14
2023-04-27T06:08:53.046Z,15
2023-04-27T06:09:59.971Z,14
2023-04-27T06:11:06.965Z,13
2023-04-27T06:12:13.750Z,16
2023-04-27T06:13:20.555Z,14
2023-04-27T06:14:27.401Z,13
2023-04-27T06:15:34.607Z,15
2023-04-27T06:16:41.351Z,15
2023-04-27T06:17:48.426Z,12
2023-04-27T06:18:56.288Z,13
2023-04-27T06:20:03.103Z,12
2023-04-27T06:21:13.109Z,11
2023-04-27T06:22:19.848Z,9
2023-04-27T06:23:27.009Z,7
2023-04-27T06:24:33.739Z,7
2023-04-27T06:25:40.498Z,7
2023-04-27T06:26:47.290Z,7
2023-04-27T06:27:54.087Z,7
2023-04-27T06:29:00.895Z,7
2023-04-27T06:30:07.706Z,7
2023-04-27T06:31:14.946Z,7
2023-04-27T06:32:21.714Z,7
2023-04-27T06:33:28.520Z,7
2023-04-27T06:34:35.468Z,7
2023-04-27T06:35:42.513Z,8
2023-04-27T06:36:49.196Z,8
2023-04-27T06:37:57.627Z,7
2023-04-27T06:39:04.440Z,8
2023-04-27T06:40:11.236Z,8
2023-04-27T06:41:18.112Z,7
2023-04-27T06:42:24.890Z,7
2023-04-27T06:43:31.652Z,8
2023-04-27T06:44:38.452Z,7
2023-04-27T06:45:45.401Z,8
2023-04-27T06:46:52.439Z,6
2023-04-27T06:47:59.170Z,6
2023-04-27T06:49:05.980Z,7
2023-04-27T06:50:12.743Z,7
2023-04-27T06:51:19.545Z,7
2023-04-27T06:52:26.467Z,7
2023-04-27T06:53:33.257Z,7
2023-04-27T06:54:40.190Z,6
2023-04-27T06:55:48.504Z,6
2023-04-27T06:56:53.918Z,6
2023-04-27T06:58:00.955Z,6
2023-04-27T06:59:07.825Z,6
2023-04-27T07:00:14.609Z,6
2023-04-27T07:01:21.747Z,7
2023-04-27T07:02:28.645Z,7
2023-04-27T07:03:35.491Z,6
2023-04-27T07:04:42.350Z,6
2023-04-27T07:05:49.121Z,5
2023-04-27T07:06:55.925Z,6
2023-04-27T07:08:06.109Z,6
2023-04-27T07:09:16.620Z,5
2023-04-27T07:10:16.423Z,5
2023-04-27T07:11:23.308Z,5
2023-04-27T07:12:30.114Z,5
2023-04-27T07:13:36.965Z,4
2023-04-27T07:14:43.896Z,4
2023-04-27T07:15:51.757Z,4
2023-04-27T07:16:58.552Z,4
2023-04-27T07:18:05.547Z,4
2023-04-27T07:19:12.663Z,4
2023-04-27T07:20:19.315Z,5
2023-04-27T07:21:26.296Z,5
2023-04-27T07:22:33.131Z,5
2023-04-27T07:23:41.537Z,5
2023-04-27T07:24:48.339Z,4
2023-04-27T07:25:55.213Z,5
2023-04-27T07:27:02.200Z,5
2023-04-27T07:28:09.179Z,4
2023-04-27T07:29:26.076Z,4
2023-04-27T07:30:22.811Z,3
2023-04-27T07:31:29.665Z,4
2023-04-27T07:32:36.652Z,3
2023-04-27T07:33:43.444Z,4
2023-04-27T07:34:53.818Z,4
2023-04-27T07:35:59.762Z,4
2023-04-27T07:37:06.629Z,4
2023-04-27T07:38:14.968Z,4
2023-04-27T07:39:25.283Z,4
2023-04-27T07:40:32.117Z,3
2023-04-27T07:41:39.013Z,4
2023-04-27T07:42:45.918Z,3
2023-04-27T07:43:52.777Z,4
2023-04-27T07:44:59.534Z,3
2023-04-27T07:46:06.379Z,4
2023-04-27T07:47:13.163Z,3
2023-04-27T07:48:19.985Z,3
2023-04-27T07:49:26.760Z,3
2023-04-27T07:50:33.489Z,3
2023-04-27T07:51:40.285Z,3
2023-04-27T07:52:47.188Z,3
2023-04-27T07:53:54.175Z,4
2023-04-27T07:55:01.039Z,4
2023-04-27T07:56:08.057Z,4
2023-04-27T07:57:14.962Z,4
2023-04-27T07:58:21.852Z,3
2023-04-27T07:59:28.711Z,4
2023-04-27T08:00:35.540Z,4
2023-04-27T08:01:42.405Z,4
2023-04-27T08:02:49.305Z,3
2023-04-27T08:03:56.306Z,3
2023-04-27T08:05:03.273Z,4
2023-04-27T08:06:10.450Z,4
2023-04-27T08:07:17.527Z,4
2023-04-27T08:08:23.553Z,4
2023-04-27T08:09:30.357Z,4
2023-04-27T08:10:37.258Z,4
2023-04-27T08:11:44.077Z,4
2023-04-27T08:12:50.882Z,4
2023-04-27T08:13:57.660Z,4
2023-04-27T08:15:04.491Z,4
2023-04-27T08:16:11.680Z,3
2023-04-27T08:17:18.517Z,3
2023-04-27T08:18:25.357Z,4
2023-04-27T08:19:32.164Z,3
2023-04-27T08:20:38.981Z,4
2023-04-27T08:21:45.904Z,4
2023-04-27T08:22:52.726Z,4
2023-04-27T08:23:59.663Z,4
2023-04-27T08:25:06.579Z,4
2023-04-27T08:26:13.719Z,4
2023-04-27T08:27:20.588Z,3
2023-04-27T08:28:27.598Z,3
2023-04-27T08:29:34.579Z,3
2023-04-27T08:30:41.240Z,3
2023-04-27T08:31:48.123Z,3
2023-04-27T08:32:54.985Z,3
2023-04-27T08:34:01.779Z,3
2023-04-27T08:35:09.964Z,3
2023-04-27T08:36:16.867Z,3
2023-04-27T08:37:23.609Z,3
2023-04-27T08:38:30.868Z,3
2023-04-27T08:39:37.808Z,4
2023-04-27T08:40:44.668Z,4
2023-04-27T08:41:51.560Z,3
2023-04-27T08:42:58.384Z,4
2023-04-27T08:44:05.227Z,3
2023-04-27T08:45:12.130Z,4
2023-04-27T08:46:19.060Z,4
2023-04-27T08:47:34.957Z,3
2023-04-27T08:48:32.663Z,3
2023-04-27T08:49:39.433Z,3
2023-04-27T08:50:46.253Z,4
2023-04-27T08:51:53.141Z,3
2023-04-27T08:52:59.954Z,3
2023-04-27T08:54:07.377Z,3
2023-04-27T08:55:16.402Z,4
2023-04-27T08:56:22.325Z,3
2023-04-27T08:57:29.324Z,3
2023-04-27T08:58:36.161Z,3
2023-04-27T08:59:43.044Z,3
2023-04-27T09:00:50.789Z,3
2023-04-27T09:01:56.723Z,3
2023-04-27T09:03:03.736Z,3
2023-04-27T09:04:10.784Z,3
2023-04-27T09:05:17.429Z,3
2023-04-27T09:06:24.200Z,3
2023-04-27T09:07:33.832Z,4
2023-04-27T09:08:40.702Z,4
2023-04-27T09:09:48.120Z,4
2023-04-27T09:10:55.106Z,4
2023-04-27T09:12:01.928Z,4
2023-04-27T09:13:17.718Z,4
2023-04-27T09:14:24.546Z,3
2023-04-27T09:15:31.347Z,4
2023-04-27T09:16:38.224Z,5
2023-04-27T09:17:45.009Z,5
2023-04-27T09:18:52.058Z,3
2023-04-27T09:19:58.868Z,3
2023-04-27T09:21:09.006Z,3
2023-04-27T09:22:16.693Z,2
2023-04-27T09:23:23.523Z,3
2023-04-27T09:24:32.996Z,3
2023-04-27T09:25:39.730Z,3
2023-04-27T09:26:46.494Z,3
2023-04-27T09:27:53.374Z,3
2023-04-27T09:29:00.376Z,3
2023-04-27T09:30:07.253Z,3
2023-04-27T09:31:17.582Z,5
2023-04-27T09:32:24.463Z,3
2023-04-27T09:33:31.322Z,3
2023-04-27T09:34:38.106Z,3
2023-04-27T09:35:45.256Z,3
2023-04-27T09:36:52.062Z,3
2023-04-27T09:37:58.934Z,3
2023-04-27T09:39:05.777Z,3
2023-04-27T09:40:13.693Z,3
2023-04-27T09:41:20.594Z,3
2023-04-27T09:42:27.379Z,3
2023-04-27T09:43:35.034Z,3
2023-04-27T09:44:42.754Z,3
2023-04-27T09:45:50.436Z,9
2023-04-27T09:46:57.213Z,3
2023-04-27T09:48:04.098Z,3
2023-04-27T09:49:11.110Z,4
2023-04-27T09:50:18.012Z,3
2023-04-27T09:51:27.718Z,3
2023-04-27T09:52:34.527Z,3
2023-04-27T09:53:41.349Z,3
2023-04-27T09:54:48.420Z,4
2023-04-27T09:55:57.183Z,4
2023-04-27T09:57:11.013Z,4
2023-04-27T09:58:23.821Z,4
2023-04-27T09:59:38.903Z,4
2023-04-27T10:00:53.680Z,3
2023-04-27T10:02:23.299Z,3
2023-04-27T10:03:26.518Z,4
2023-04-27T10:04:43.755Z,3
2023-04-27T10:06:00.832Z,3
2023-04-27T10:07:12.788Z,3
2023-04-27T10:08:19.672Z,3
2023-04-27T10:09:27.528Z,3
2023-04-27T10:10:37.291Z,3
2023-04-27T10:11:49.978Z,4
2023-04-27T10:12:56.871Z,3
2023-04-27T10:14:05.807Z,3
2023-04-27T10:15:12.761Z,4
2023-04-27T10:16:19.631Z,4
2023-04-27T10:17:26.437Z,4
2023-04-27T10:18:33.208Z,4
2023-04-27T10:19:40.155Z,4
2023-04-27T10:20:56.072Z,3
2023-04-27T10:22:13.386Z,3
2023-04-27T10:23:20.186Z,3
2023-04-27T10:24:30.003Z,3
2023-04-27T10:25:39.648Z,3
2023-04-27T10:26:46.689Z,3
2023-04-27T10:27:53.515Z,3
2023-04-27T10:29:04.024Z,3
2023-04-27T10:30:10.874Z,3
2023-04-27T10:31:18.736Z,4
2023-04-27T10:32:30.657Z,4
2023-04-27T10:33:37.413Z,4
2023-04-27T10:34:48.702Z,3
2023-04-27T10:35:58.479Z,4
2023-04-27T10:37:06.256Z,4
2023-04-27T10:38:13.041Z,4
2023-04-27T10:39:27.597Z,3
2023-04-27T10:40:29.560Z,3
2023-04-27T10:41:37.267Z,3
2023-04-27T10:42:44.056Z,3
2023-04-27T10:43:50.925Z,3
2023-04-27T10:44:58.650Z,4
2023-04-27T10:46:05.467Z,4
2023-04-27T10:47:12.291Z,3
2023-04-27T10:48:19.504Z,3
2023-04-27T10:49:26.273Z,3
2023-04-27T10:50:33.067Z,3
2023-04-27T10:51:39.891Z,3
2023-04-27T10:52:48.301Z,3
2023-04-27T10:53:55.252Z,3
2023-04-27T10:55:02.258Z,3
2023-04-27T10:56:19.489Z,3
2023-04-27T10:57:29.315Z,3
2023-04-27T10:58:47.904Z,3
2023-04-27T10:59:44.981Z,3
2023-04-27T11:00:52.333Z,3
2023-04-27T11:02:00.589Z,3
2023-04-27T11:03:07.551Z,3
2023-04-27T11:04:20.564Z,3
2023-04-27T11:05:27.375Z,4
2023-04-27T11:06:35.047Z,3
2023-04-27T11:07:45.269Z,3
2023-04-27T11:08:52.981Z,4
2023-04-27T11:09:59.756Z,4
2023-04-27T11:11:08.473Z,3
2023-04-27T11:12:17.958Z,4
2023-04-27T11:13:24.861Z,3
2023-04-27T11:14:31.727Z,4
2023-04-27T11:15:38.580Z,4
2023-04-27T11:16:52.297Z,3
2023-04-27T11:17:59.455Z,3
2023-04-27T11:19:09.044Z,3
2023-04-27T11:20:15.943Z,3
2023-04-27T11:21:28.801Z,3
2023-04-27T11:22:36.711Z,3
2023-04-27T11:23:46.193Z,3
2023-04-27T11:24:53.055Z,3
2023-04-27T11:25:59.829Z,3
2023-04-27T11:27:11.773Z,3
2023-04-27T11:28:19.484Z,3
2023-04-27T11:29:26.435Z,3
2023-04-27T11:30:33.257Z,2
2023-04-27T11:31:40.088Z,3
2023-04-27T11:32:50.495Z,3
2023-04-27T11:33:57.222Z,3
2023-04-27T11:35:05.862Z,3
2023-04-27T11:36:13.493Z,3
2023-04-27T11:37:21.142Z,3
2023-04-27T11:38:28.909Z,3
2023-04-27T11:39:35.723Z,3
2023-04-27T11:40:43.480Z,3
2023-04-27T11:41:50.283Z,3
2023-04-27T11:42:57.166Z,3
2023-04-27T11:44:07.207Z,3
2023-04-27T11:45:14.206Z,3
2023-04-27T11:46:21.072Z,3
2023-04-27T11:47:28.015Z,3
2023-04-27T11:48:34.745Z,3
2023-04-27T11:49:42.366Z,3
2023-04-27T11:50:49.250Z,3
2023-04-27T11:51:56.960Z,3
2023-04-27T11:53:04.738Z,3
2023-04-27T11:54:13.685Z,4
2023-04-27T11:55:20.280Z,4
2023-04-27T11:56:27.407Z,4
2023-04-27T11:57:44.496Z,4
2023-04-27T11:58:51.297Z,4
2023-04-27T11:59:58.086Z,4
2023-04-27T12:01:04.932Z,4
2023-04-27T12:02:14.936Z,3
2023-04-27T12:03:32.794Z,4
2023-04-27T12:04:40.840Z,4
2023-04-27T12:05:48.509Z,4
2023-04-27T12:06:58.821Z,3
2023-04-27T12:08:05.660Z,3
2023-04-27T12:09:12.480Z,3
2023-04-27T12:10:20.565Z,3
2023-04-27T12:11:27.455Z,3
2023-04-27T12:12:34.274Z,3
2023-04-27T12:13:41.118Z,3
2023-04-27T12:14:47.890Z,3
2023-04-27T12:15:54.732Z,3
2023-04-27T12:17:04.011Z,3
2023-04-27T12:18:10.838Z,3
2023-04-27T12:19:17.659Z,3
2023-04-27T12:20:24.448Z,3
2023-04-27T12:21:31.284Z,3
2023-04-27T12:22:38.092Z,2
2023-04-27T12:23:44.982Z,3
2023-04-27T12:24:52.755Z,2
2023-04-27T12:25:59.591Z,3
2023-04-27T12:27:16.670Z,3
2023-04-27T12:28:24.940Z,3
2023-04-27T12:29:31.849Z,2
2023-04-27T12:30:41.550Z,3
2023-04-27T12:31:48.418Z,2
2023-04-27T12:32:56.225Z,3
2023-04-27T12:34:02.965Z,3
2023-04-27T12:35:10.772Z,3
2023-04-27T12:36:17.813Z,3
2023-04-27T12:37:26.793Z,3
2023-04-27T12:38:33.079Z,3
2023-04-27T12:39:42.110Z,3
2023-04-27T12:40:50.072Z,2
2023-04-27T12:41:58.020Z,2
2023-04-27T12:43:04.894Z,3
2023-04-27T12:44:12.138Z,2
2023-04-27T12:45:18.822Z,2
2023-04-27T12:46:25.752Z,2
2023-04-27T12:47:50.126Z,2
2023-04-27T12:48:40.373Z,2
2023-04-27T12:49:49.426Z,3
2023-04-27T12:50:56.370Z,3
2023-04-27T12:52:04.185Z,3
2023-04-27T12:53:11.023Z,3
2023-04-27T12:54:18.882Z,3
2023-04-27T12:55:33.420Z,3
2023-04-27T12:56:32.924Z,2
2023-04-27T12:57:40.643Z,2
2023-04-27T12:58:48.541Z,3
2023-04-27T12:59:55.342Z,2
2023-04-27T13:01:05.622Z,2
2023-04-27T13:02:12.430Z,2
2023-04-27T13:03:20.321Z,2
2023-04-27T13:04:27.138Z,2
2023-04-27T13:05:33.852Z,2
2023-04-27T13:06:41.517Z,2
2023-04-27T13:07:49.173Z,2
2023-04-27T13:08:56.606Z,3
2023-04-27T13:10:05.135Z,2
2023-04-27T13:11:12.961Z,2
2023-04-27T13:12:21.092Z,2
2023-04-27T13:13:29.400Z,2
2023-04-27T13:14:36.382Z,2
2023-04-27T13:15:43.363Z,3
2023-04-27T13:16:50.153Z,2
2023-04-27T13:18:00.151Z,3
2023-04-27T13:19:07.962Z,2
2023-04-27T13:20:14.846Z,3
2023-04-27T13:21:21.675Z,3
2023-04-27T13:22:28.509Z,3
2023-04-27T13:23:35.266Z,3
2023-04-27T13:24:42.190Z,3
2023-04-27T13:25:48.936Z,4
2023-04-27T13:26:56.792Z,7
2023-04-27T13:28:03.789Z,4
2023-04-27T13:29:10.615Z,3
2023-04-27T13:30:17.399Z,3
2023-04-27T13:31:25.242Z,3
2023-04-27T13:32:33.002Z,3
2023-04-27T13:33:39.832Z,3
2023-04-27T13:34:48.509Z,3
2023-04-27T13:35:55.427Z,8
2023-04-27T13:37:03.073Z,5
2023-04-27T13:38:09.874Z,4
2023-04-27T13:39:16.749Z,4
2023-04-27T13:40:23.676Z,4
2023-04-27T13:41:30.682Z,4
2023-04-27T13:42:37.510Z,4
2023-04-27T13:43:44.352Z,4
2023-04-27T13:44:51.150Z,4
2023-04-27T13:46:01.048Z,8
2023-04-27T13:47:06.222Z,59
2023-04-27T13:48:13.962Z,28
2023-04-27T13:49:20.768Z,27
2023-04-27T13:50:27.618Z,6
2023-04-27T13:51:35.918Z,3
2023-04-27T13:52:41.370Z,24
2023-04-27T13:53:48.258Z,4
2023-04-27T13:54:55.106Z,3
2023-04-27T13:56:02.001Z,16
2023-04-27T13:57:09.878Z,44
2023-04-27T13:58:19.784Z,42
2023-04-27T13:59:26.682Z,45
2023-04-27T14:00:36.563Z,29
2023-04-27T14:01:43.647Z,90
2023-04-27T14:02:50.562Z,8
2023-04-27T14:03:57.936Z,8
2023-04-27T14:05:04.690Z,31
2023-04-27T14:06:11.567Z,59
2023-04-27T14:07:18.611Z,23
2023-04-27T14:08:25.432Z,29
2023-04-27T14:09:32.332Z,40
2023-04-27T14:10:39.265Z,21
2023-04-27T14:11:56.012Z,26
2023-04-27T14:12:54.800Z,5
2023-04-27T14:14:01.775Z,18
2023-04-27T14:15:08.877Z,10
2023-04-27T14:16:15.786Z,4
2023-04-27T14:17:23.024Z,7
2023-04-27T14:18:32.609Z,8
2023-04-27T14:19:39.717Z,4
2023-04-27T14:20:46.523Z,12
2023-04-27T14:21:53.337Z,8
2023-04-27T14:23:00.410Z,9
2023-04-27T14:24:07.168Z,7
2023-04-27T14:25:15.178Z,4
2023-04-27T14:26:22.090Z,5
2023-04-27T14:27:29.893Z,6
2023-04-27T14:28:37.631Z,3
2023-04-27T14:29:44.640Z,4
2023-04-27T14:30:51.505Z,3
2023-04-27T14:31:58.466Z,4
2023-04-27T14:33:05.265Z,3
2023-04-27T14:34:12.202Z,4
2023-04-27T14:35:21.285Z,3
2023-04-27T14:36:28.235Z,4
2023-04-27T14:37:36.650Z,4
2023-04-27T14:38:43.473Z,3
2023-04-27T14:39:52.248Z,3
2023-04-27T14:40:59.612Z,3
2023-04-27T14:42:07.510Z,3
2023-04-27T14:43:14.502Z,3
2023-04-27T14:44:23.827Z,3
2023-04-27T14:45:36.950Z,3
2023-04-27T14:46:38.001Z,3
2023-04-27T14:47:44.859Z,3
2023-04-27T14:48:51.745Z,3
2023-04-27T14:49:58.567Z,3
2023-04-27T14:51:06.627Z,3
2023-04-27T14:52:13.419Z,3
2023-04-27T14:53:20.292Z,3
2023-04-27T14:54:27.164Z,3
2023-04-27T14:55:34.054Z,3
2023-04-27T14:56:40.879Z,3
2023-04-27T14:57:47.793Z,3
2023-04-27T14:58:54.676Z,3
2023-04-27T15:00:01.481Z,3
2023-04-27T15:01:08.791Z,3
2023-04-27T15:02:16.475Z,3
2023-04-27T15:03:23.393Z,4
2023-04-27T15:04:30.168Z,4
2023-04-27T15:05:36.960Z,3
2023-04-27T15:06:43.866Z,4
2023-04-27T15:07:51.570Z,3
2023-04-27T15:08:58.356Z,4
2023-04-27T15:10:05.405Z,3
2023-04-27T15:11:12.403Z,3
2023-04-27T15:12:19.338Z,4
2023-04-27T15:13:26.235Z,4
2023-04-27T15:14:33.090Z,3
2023-04-27T15:15:40.004Z,3
2023-04-27T15:16:50.564Z,7
2023-04-27T15:17:57.441Z,6
2023-04-27T15:19:04.331Z,4
2023-04-27T15:20:11.220Z,4
2023-04-27T15:21:18.276Z,4
2023-04-27T15:22:25.157Z,4
2023-04-27T15:23:32.030Z,4
2023-04-27T15:24:40.402Z,6
2023-04-27T15:25:47.310Z,8
2023-04-27T15:26:54.158Z,17
2023-04-27T15:28:01.112Z,27
2023-04-27T15:29:09.925Z,92
2023-04-27T15:30:17.662Z,88
2023-04-27T15:31:24.430Z,25
2023-04-27T15:32:32.338Z,49
2023-04-27T15:33:39.085Z,54
2023-04-27T15:34:48.243Z,60
2023-04-27T15:35:55.160Z,27
2023-04-27T15:37:02.250Z,28
2023-04-27T15:38:09.264Z,39
2023-04-27T15:39:16.245Z,69
2023-04-27T15:40:22.944Z,44
2023-04-27T15:41:30.068Z,24
2023-04-27T15:42:37.829Z,7
2023-04-27T15:43:48.228Z,5
2023-04-27T15:44:55.048Z,4
2023-04-27T15:46:01.887Z,4
2023-04-27T15:47:11.357Z,5
2023-04-27T15:48:18.218Z,10
2023-04-27T15:49:25.985Z,7
2023-04-27T15:50:35.135Z,7
2023-04-27T15:51:42.123Z,6
2023-04-27T15:52:48.955Z,5
2023-04-27T15:53:55.839Z,5
2023-04-27T15:55:02.746Z,4
2023-04-27T15:56:09.768Z,4
2023-04-27T15:57:18.437Z,3
2023-04-27T15:58:25.382Z,4
2023-04-27T15:59:32.255Z,3
2023-04-27T16:00:39.198Z,4
2023-04-27T16:01:45.989Z,5
2023-04-27T16:02:52.952Z,4
2023-04-27T16:03:59.733Z,4
2023-04-27T16:05:06.535Z,5
2023-04-27T16:06:13.331Z,6
2023-04-27T16:07:20.159Z,4
2023-04-27T16:08:27.005Z,4
2023-04-27T16:09:34.098Z,4
2023-04-27T16:10:40.810Z,5
2023-04-27T16:11:47.659Z,5
2023-04-27T16:12:55.661Z,4
2023-04-27T16:14:03.370Z,4
2023-04-27T16:15:11.634Z,4
2023-04-27T16:16:18.014Z,8
2023-04-27T16:17:24.939Z,7
2023-04-27T16:18:31.771Z,7
2023-04-27T16:19:38.599Z,8
2023-04-27T16:20:45.420Z,5